Latest Coastal Weather Observations for Hobart Airport

IDT60701

Issued at 6:22 pm EST Tuesday 30 June 2015 (issued every 10 minutes, with the page automatically refreshed every 10 minutes)

About coastal observations | Map of coastal stations | Coastal observations for TAS | Marine services | Other Formats
Station Details ID: 094008 Name: HOBART AIRPORT Lat: -42.83 Lon: 147.50 Height: 4.0 m
Data from the previous 72 hours. | See also: Recent months at Hobart Airport
Date/Time
EST
Temp

°C
Wind Pressure Rain
since 9am
mm
Weather Cloud Vis
km
Sea
Height
m
Swell
Dir
 
Speed
knots
Gust
knots
hPa Trend Height
m
Period
s
Dir
30/06:00pm 10.2 NW 7 9 1023.6 R - Fine Mostly cloudy 40 - - - -
30/05:30pm 10.4 NW 7 8 1023.3 - - - Mostly clear 10 - - - -
30/05:00pm 11.5 NW 9 12 1023.2 - 0.0 - Mostly clear 10 - - - -
30/04:30pm 12.4 WNW 9 11 1023.0 - 0.0 - Mostly clear 10 - - - -
30/04:00pm 12.9 NW 9 11 1023.0 - 0.0 - Mostly clear 10 - - - -
30/03:30pm 13.1 NW 11 15 1022.8 - 0.0 - Mostly clear 10 - - - -
30/03:00pm 13.8 NNW 10 15 1022.9 S 0.0 Fine Mostly cloudy 40 - - - -
30/02:30pm 13.4 NW 9 12 1023.0 - 0.0 - Mostly clear 10 - - - -
30/02:00pm 14.1 NW 11 15 1023.1 - 0.0 - Mostly clear 10 - - - -
30/01:00pm 13.8 NW 11 17 1023.5 - 0.0 - Mostly clear 10 - - - -
30/12:30pm 13.3 NW 11 14 1023.7 - 0.0 - Mostly clear 10 - - - -
30/11:30am 12.7 NW 9 15 1024.4 - 0.0 - Mostly clear 10 - - - -
30/10:30am 11.6 NNW 8 13 1025.2 - 0.0 - Mostly clear 10 - - - -
30/09:30am 10.2 NNW 7 9 1025.3 - 0.0 - Mostly clear 10 - - - -
30/09:00am 9.6 NNW 7 10 1025.3 R 0.0 Fine Mostly clear 40 - - - -
30/08:30am 8.9 NW 7 10 1025.0 - 0.0 - Mostly clear 10 - - - -
30/08:00am 8.2 NW 8 10 1024.9 - 0.0 - Mostly clear 10 - - - -
30/07:30am 8.3 NW 10 15 1024.7 - 0.0 - Mostly clear 10 - - - -
30/07:00am 8.3 NNW 9 14 1024.6 - 0.0 - - 10 - - - -
30/06:30am 8.5 NNW 11 16 1024.1 - 0.0 - - 10 - - - -
30/06:00am 8.5 NNW 11 17 1023.8 R 0.0 Fine Clear 40 - - - -
30/05:30am 9.0 NNW 10 16 1023.5 - 0.0 - - 10 - - - -
30/05:00am 8.9 N 10 16 1023.4 - 0.0 - - 10 - - - -
30/04:30am 9.3 NNW 9 15 1023.3 - 0.0 - - 10 - - - -
30/04:00am 9.9 NNW 13 19 1023.3 - 0.0 - - 10 - - - -
30/03:30am 9.5 NNW 14 20 1023.3 - 0.0 - - 10 - - - -
30/03:00am 8.3 NNW 13 20 1023.4 F 0.0 Fine Mostly clear 40 - - - -
30/02:30am 8.7 NNW 12 17 1023.8 - 0.0 - - 10 - - - -
30/02:00am 8.8 NNW 14 20 1023.7 - 0.0 - - 10 - - - -
30/01:30am 9.4 NNW 14 20 1023.7 - 0.0 - - 10 - - - -
30/01:00am 9.6 NNW 15 22 1023.7 - 0.0 - - 10 - - - -
30/12:30am 10.0 NNW 15 22 1023.7 - 0.0 - - 10 - - - -
 
Date/Time
EST
Temp

°C
Wind Pressure Rain
since 9am
mm
Weather Cloud Vis
km
Sea
Height
m
Swell
Dir
 
Speed
knots
Gust
knots
hPa Trend Height
m
Period
s
Dir
29/11:30pm 10.5 NNW 14 19 1023.9 - 0.0 - - 10 - - - -
29/11:00pm 10.5 N 7 15 1024.1 - 0.0 - - 10 - - - -
29/10:30pm 10.6 NNW 9 15 1024.2 - 0.0 - - 10 - - - -
29/10:00pm 10.8 N 10 16 1024.3 - 0.0 - - 10 - - - -
29/09:30pm 11.4 NW 16 21 1024.5 - 0.0 - - 10 - - - -
29/09:00pm 11.3 NW 15 19 1024.6 F 0.0 Fine Mostly clear 40 - - - -
29/08:30pm 11.1 NW 13 16 1025.0 - 0.0 - - 10 - - - -
29/08:00pm 11.1 NW 15 19 1025.0 - 0.0 - - 10 - - - -
29/07:30pm 11.5 NW 16 21 1024.8 - 0.0 - - 10 - - - -
29/07:00pm 11.7 NW 15 19 1024.7 - 0.0 - - 10 - - - -
29/06:30pm 11.7 NNW 11 15 1024.7 - 0.0 - - 10 - - - -
29/06:00pm 10.5 N 6 9 1024.5 R 0.0 Fine Clear 40 - - - -
29/05:30pm 11.5 NNW 8 11 1024.4 - 0.0 - Mostly clear 10 - - - -
29/05:00pm 12.5 N 7 15 1024.3 - 0.0 - Mostly clear 10 - - - -
29/04:30pm 13.8 NW 15 21 1024.1 - 0.0 - Mostly clear 10 - - - -
29/04:00pm 14.5 NW 15 20 1023.7 - 0.0 - Mostly clear 10 - - - -
29/03:30pm 15.0 NW 14 19 1023.7 - 0.0 - Mostly clear 10 - - - -
29/03:00pm 15.5 NW 15 19 1023.6 R 0.0 Fine Mostly clear 40 - - - -
29/02:30pm 15.9 NW 17 25 1023.4 - 0.0 - Mostly clear 10 - - - -
29/02:00pm 16.1 NW 17 21 1023.3 - 0.0 - Mostly clear 10 - - - -
29/01:30pm 16.0 NW 16 27 1023.5 - 0.0 - Mostly clear 10 - - - -
29/01:29pm 15.9 NW 16 27 1023.5 - 0.0 - Mostly clear 10 - - - -
29/01:00pm 15.9 NNW 13 20 1023.6 - 0.0 - Mostly clear 10 - - - -
29/12:30pm 15.2 NNW 12 17 1024.0 - 0.0 - Mostly clear 10 - - - -
29/12:00pm 14.8 N 9 16 1024.4 F 0.0 Fine Mostly clear 40 - - - -
29/11:30am 15.1 NNW 11 17 1024.8 - 0.0 - Mostly clear 10 - - - -
29/11:00am 14.6 NW 13 17 1025.3 - 0.0 - Mostly clear 10 - - - -
29/10:30am 14.5 NNW 12 17 1025.6 - 0.0 - Mostly clear 10 - - - -
29/10:00am 13.5 N 9 17 1025.8 - 0.0 - Mostly clear 10 - - - -
29/09:30am 12.9 NNW 11 16 1025.6 - 0.0 - Mostly clear 10 - - - -
29/09:00am 12.8 NW 13 23 1025.5 R 0.0 Fine Mostly cloudy 40 - - - -
29/08:42am 12.8 WNW 15 26 1025.5 - 0.0 - - 10 - - - -
29/08:30am 12.6 NW 14 25 1025.4 - 0.0 - Mostly clear 10 - - - -
29/08:28am 12.8 WNW 15 25 1025.4 - 0.0 - Mostly clear 10 - - - -
29/08:00am 12.1 NW 14 22 1025.2 - 0.0 - Mostly clear 10 - - - -
29/07:53am 12.1 NW 17 27 1024.9 - 0.0 - Mostly clear 10 - - - -
29/07:30am 12.0 NW 19 27 1024.7 - 0.0 - Mostly clear 10 - - - -
29/07:25am 12.1 NW 19 28 1024.7 - 0.0 - Mostly clear 10 - - - -
29/07:08am 12.0 WNW 17 27 1024.8 - 0.0 - Mostly clear 10 - - - -
29/07:00am 12.2 WNW 19 24 1024.7 - 0.0 - Mostly clear 10 - - - -
29/06:30am 11.5 NW 13 19 1024.8 - 0.0 - - 10 - - - -
29/06:00am 12.2 NW 16 26 1024.1 R 0.0 - - 10 - - - -
29/05:59am 12.0 NW 15 26 1024.1 - 0.0 - - 10 - - - -
29/05:30am 12.1 NW 13 17 1024.2 - 0.0 - - 10 - - - -
29/05:00am 12.4 NW 16 20 1024.0 - 0.0 - - 10 - - - -
29/04:30am 12.4 WNW 15 20 1024.0 - 0.0 - - 10 - - - -
29/04:00am 12.2 NW 14 19 1023.9 - 0.0 - - 10 - - - -
29/03:31am 12.6 WNW 21 31 1023.6 - 0.0 - - 10 - - - -
29/03:30am 12.7 WNW 22 31 1023.7 - 0.0 - - 10 - - - -
29/03:00am 12.5 WNW 19 29 1023.7 R 0.0 - - 10 - - - -
29/02:31am 12.8 WNW 20 31 1023.5 - 0.0 - - 10 - - - -
29/02:30am 12.6 WNW 20 26 1023.5 - 0.0 - - 10 - - - -
29/02:00am 12.8 NW 21 26 1023.7 - 0.0 - - 10 - - - -
29/01:36am 13.0 WNW 18 28 1023.7 - 0.0 - - 10 - - - -
29/01:30am 13.4 WNW 17 21 1023.8 - 0.0 - - 10 - - - -
29/01:00am 13.1 WNW 18 23 1023.8 - 0.0 - - 10 - - - -
29/12:30am 13.6 WNW 17 23 1023.7 - 0.0 - - 10 - - - -
29/12:00am 13.0 WNW 17 22 1023.9 F 0.0 - - 10 - - - -
 
Date/Time
EST
Temp

°C
Wind Pressure Rain
since 9am
mm
Weather Cloud Vis
km
Sea
Height
m
Swell
Dir
 
Speed
knots
Gust
knots
hPa Trend Height
m
Period
s
Dir
28/11:30pm 13.4 WNW 17 21 1023.8 - 0.0 - - 10 - - - -
28/11:00pm 13.0 WNW 15 20 1024.0 - 0.0 - - 10 - - - -
28/10:30pm 12.2 NW 14 19 1024.2 - 0.0 - - 10 - - - -
28/10:00pm 12.3 NNW 12 18 1023.9 - 0.0 - - 10 - - - -
28/09:30pm 11.7 NNW 11 15 1024.0 - 0.0 - Partly cloudy 10 - - - -
28/09:00pm 11.7 NNW 9 14 1024.0 R 0.0 - - 10 - - - -
28/08:30pm 12.8 NNW 13 21 1024.0 - 0.0 - - 10 - - - -
28/08:00pm 12.9 NNW 9 16 1023.9 - 0.0 - - 10 - - - -
28/07:30pm 11.8 N 9 13 1024.0 - 0.0 - - 10 - - - -
28/07:00pm 11.7 N 10 17 1023.6 - 0.0 - Mostly clear 10 - - - -
28/06:30pm 11.6 NNW 10 14 1023.3 - 0.0 - Mostly clear 10 - - - -
28/06:00pm 13.1 NNW 11 21 1023.2 F 0.0 Fine Partly cloudy 35 - - - -
28/05:30pm 13.5 NW 11 19 1022.9 - 0.0 - Mostly clear 10 - - - -
28/05:00pm 14.0 WNW 17 23 1022.5 - 0.0 - Mostly clear 10 - - - -
28/04:53pm 13.8 NW 15 27 1022.5 - 0.0 - Mostly clear 10 - - - -
28/04:30pm 14.0 NW 15 20 1022.8 - 0.0 - Mostly clear 10 - - - -
28/04:00pm 13.5 NNW 9 14 1022.5 - 0.0 - Partly cloudy 10 - - - -
28/03:30pm 14.5 NW 12 18 1022.5 - 0.0 - Partly cloudy 10 - - - -
28/03:00pm 13.7 N 7 10 1022.7 R 0.0 Fine Partly cloudy 35 - - - -
28/02:30pm 15.0 NW 16 21 1022.7 - 0.0 - Partly cloudy 10 - - - -
28/02:00pm 14.8 NW 16 20 1023.0 - 0.0 - Partly cloudy 10 - - - -
28/01:30pm 14.7 NW 19 25 1023.0 - 0.0 - Partly cloudy 10 - - - -
28/01:15pm 15.1 WNW 18 28 1022.9 - 0.0 - - 10 - - - -
28/01:00pm 15.1 WNW 18 24 1023.0 - 0.0 - Partly cloudy 10 - - - -
28/12:34pm 15.0 WNW 17 27 1023.6 - 0.0 - Partly cloudy 10 - - - -
28/12:30pm 15.2 WNW 16 24 1023.5 - 0.0 - Partly cloudy 10 - - - -
28/12:01pm 14.7 NW 18 28 1023.5 - 0.0 - Partly cloudy 10 - - - -
28/12:00pm 14.8 NW 17 26 1023.5 F 0.0 Fine Partly cloudy 35 - - - -
28/11:30am 14.3 NW 16 25 1023.7 - 0.0 - Partly cloudy 10 - - - -
28/11:00am 13.5 NNW 10 14 1024.4 - 0.0 - Partly cloudy 10 - - - -
28/10:30am 12.2 NNW 9 12 1024.6 - 0.0 - Partly cloudy 10 - - - -
28/10:00am 12.1 NNW 10 14 1025.0 - 0.0 - Partly cloudy 10 - - - -
28/09:30am 12.6 NNW 10 14 1024.8 - 0.0 - Partly cloudy 10 - - - -
28/09:00am 11.7 NNW 9 14 1024.5 R 0.0 Haze Mostly clear 25 - - - -
28/08:30am 10.0 NNW 9 13 1024.6 - 0.0 - Mostly clear 10 - - - -
28/08:00am 11.0 NW 16 26 1023.5 - 0.0 - Mostly clear 10 - - - -
28/07:53am 11.6 NW 16 26 1023.4 - 0.0 - Mostly clear 10 - - - -
28/07:30am 10.6 NNW 10 14 1023.5 - 0.0 - Mostly clear 10 - - - -
28/07:00am 10.6 NW 12 19 1023.9 - 0.0 - Mostly clear 10 - - - -
28/06:30am 11.0 NW 14 20 1023.5 - 0.0 - Mostly clear 10 - - - -
28/06:00am 11.1 NW 15 22 1023.2 R 0.0 Fine Mostly clear 40 - - - -
28/05:30am 11.7 NW 11 16 1022.6 - 0.0 - Mostly clear 10 - - - -
28/05:00am 11.4 WNW 8 15 1022.8 - 0.0 - Mostly clear 10 - - - -
28/04:30am 11.2 NNW 7 10 1022.4 - 0.0 - Mostly clear 10 - - - -
28/04:00am 12.5 WNW 19 29 1022.2 - 0.0 - Mostly clear 10 - - - -
28/03:50am 12.5 WNW 15 28 1022.1 - 0.0 - Mostly clear 10 - - - -
28/03:30am 12.5 WNW 9 16 1022.2 - 0.0 - Partly cloudy 10 - - - -
28/03:00am 12.3 WNW 10 16 1021.9 R 0.0 Fine Mostly clear 40 - - - -
28/02:30am 12.5 WNW 15 24 1021.2 - 0.0 - Mostly clear 10 - - - -
28/02:00am 12.2 NW 15 22 1021.1 - 0.0 - Mostly clear 10 - - - -
28/01:36am 12.4 WNW 16 26 1020.8 - 0.0 - Mostly clear 10 - - - -
28/01:30am 12.2 WNW 18 26 1020.7 - 0.0 - Mostly clear 10 - - - -
28/01:15am 12.3 WNW 19 29 1020.6 - 0.0 - Mostly clear 10 - - - -
28/01:00am 12.2 NW 15 21 1020.7 - 0.0 - Mostly clear 10 - - - -
28/12:30am 12.2 NW 19 30 1020.8 - 0.0 - Mostly clear 10 - - - -
28/12:00am 12.2 WNW 22 32 1020.3 F 0.0 Fine Mostly clear 40 - - - -
 
Date/Time
EST
Temp

°C
Wind Pressure Rain
since 9am
mm
Weather Cloud Vis
km
Sea
Height
m
Swell
Dir
 
Speed
knots
Gust
knots
hPa Trend Height
m
Period
s
Dir
27/11:54pm 12.4 WNW 22 32 1020.4 - 0.0 - Mostly clear 10 - - - -
27/11:30pm 12.5 WNW 25 33 1019.9 - 0.0 - Mostly clear 10 - - - -
27/11:10pm 12.1 WNW 23 34 1019.9 - 0.0 - Mostly clear 10 - - - -
27/11:00pm 12.1 NW 21 29 1019.9 - 0.0 - Mostly clear 10 - - - -
27/10:34pm 11.9 NW 16 26 1020.5 - 0.0 - Mostly clear 10 - - - -
27/10:30pm 12.2 NW 17 26 1020.6 - 0.0 - Mostly clear 10 - - - -
27/10:21pm 12.0 NW 15 25 1020.6 - 0.0 - Mostly clear 10 - - - -
27/10:00pm 12.0 WNW 12 22 1020.7 - 0.0 - Mostly clear 10 - - - -
27/09:30pm 11.9 NNW 9 17 1020.9 - 0.0 - Mostly clear 10 - - - -
27/09:00pm 12.0 NE 6 12 1020.7 F 0.0 Fine Mostly clear 40 - - - -
27/08:30pm 12.0 N 7 15 1020.7 - 0.0 - Mostly clear 10 - - - -
27/08:00pm 11.2 N 6 8 1021.0 - 0.0 - Mostly clear 10 - - - -
27/07:30pm 10.4 N 8 15 1021.2 - 0.0 - Partly cloudy 10 - - - -
27/07:00pm 11.4 N 9 14 1021.2 - 0.0 - Partly cloudy 10 - - - -
27/06:30pm 11.7 NNE 11 15 1021.0 - 0.0 - Partly cloudy 10 - - - -

Other Formats:

Comma delimited format used in spreadsheet applications
http://www.bom.gov.au/fwo/IDT60701/IDT60701.94975.axf

JavaScript Object Notation format (JSON) in row-major order
http://www.bom.gov.au/fwo/IDT60701/IDT60701.94975.json